createdAt,value
2023-03-22T00:02:16.422Z,96139.07
2023-03-22T00:04:44.493Z,96139.48
2023-03-22T00:07:12.550Z,96135.03
2023-03-22T00:09:40.538Z,96134.94
2023-03-22T00:12:08.492Z,96135.29
2023-03-22T00:14:36.498Z,96132.34
2023-03-22T00:17:04.512Z,96130.67
2023-03-22T00:19:33.870Z,96130.09
2023-03-22T00:22:02.066Z,96122.30
2023-03-22T00:24:29.868Z,96125.88
2023-03-22T00:26:58.636Z,96121.17
2023-03-22T00:29:26.575Z,96123.48
2023-03-22T00:31:55.897Z,96122.87
2023-03-22T00:34:23.785Z,96121.95
2023-03-22T00:36:51.937Z,96117.86
2023-03-22T00:39:19.962Z,96115.67
2023-03-22T00:41:48.121Z,96112.55
2023-03-22T00:44:15.949Z,96113.95
2023-03-22T00:46:43.811Z,96115.00
2023-03-22T00:49:12.368Z,96118.68
2023-03-22T00:51:40.358Z,96119.53
2023-03-22T00:54:08.233Z,96115.40
2023-03-22T00:56:37.624Z,96115.50
2023-03-22T00:59:14.400Z,96111.80
2023-03-22T01:01:43.800Z,96108.11
2023-03-22T01:04:18.198Z,96104.64
2023-03-22T01:06:47.293Z,96106.05
2023-03-22T01:09:15.496Z,96108.19
2023-03-22T01:11:43.663Z,96109.55
2023-03-22T01:14:14.182Z,96108.58
2023-03-22T01:16:42.387Z,96105.10
2023-03-22T01:19:10.876Z,96102.57
2023-03-22T01:21:39.462Z,96103.22
2023-03-22T01:24:08.200Z,96107.14
2023-03-22T01:26:41.891Z,96102.98
2023-03-22T01:29:18.344Z,96107.17
2023-03-22T01:31:48.179Z,96104.92
2023-03-22T01:34:25.009Z,96098.80
2023-03-22T01:36:58.058Z,96099.48
2023-03-22T01:39:32.509Z,96099.66
2023-03-22T01:42:16.460Z,96100.41
2023-03-22T01:45:07.300Z,96099.80
2023-03-22T01:47:38.010Z,96099.08
2023-03-22T01:50:22.531Z,96098.42
2023-03-22T01:53:05.106Z,96096.67
2023-03-22T01:55:47.849Z,96101.49
2023-03-22T01:58:36.696Z,96103.44
2023-03-22T02:01:17.687Z,96103.65
2023-03-22T02:03:59.056Z,96101.95
2023-03-22T02:06:32.912Z,96100.92
2023-03-22T02:09:12.570Z,96100.46
2023-03-22T02:11:50.308Z,96101.85
2023-03-22T02:14:57.670Z,96099.17
2023-03-22T02:18:16.825Z,96097.98
2023-03-22T02:21:30.870Z,96095.15
2023-03-22T02:24:33.550Z,96096.02
2023-03-22T02:27:24.012Z,96096.23
2023-03-22T02:30:32.986Z,96093.36
2023-03-22T02:33:41.616Z,96094.78
2023-03-22T02:36:44.393Z,96096.56
2023-03-22T02:39:34.933Z,96105.46
2023-03-22T02:42:25.803Z,96109.86
2023-03-22T02:45:03.623Z,96103.38
2023-03-22T02:48:11.389Z,96104.36
2023-03-22T02:50:53.775Z,96114.05
2023-03-22T02:53:31.944Z,96119.80
2023-03-22T02:56:05.802Z,96115.55
2023-03-22T02:58:47.825Z,96113.88
2023-03-22T03:01:24.591Z,96116.28
2023-03-22T03:03:57.511Z,96117.61
2023-03-22T03:06:32.486Z,96118.70
2023-03-22T03:09:05.558Z,96121.78
2023-03-22T03:11:34.664Z,96120.82
2023-03-22T03:14:05.027Z,96121.55
2023-03-22T03:16:36.858Z,96121.36
2023-03-22T03:19:26.564Z,96123.94
2023-03-22T03:22:07.028Z,96122.83
2023-03-22T03:24:54.548Z,96124.12
2023-03-22T03:27:28.734Z,96125.30
2023-03-22T03:30:05.440Z,96127.48
2023-03-22T03:32:42.266Z,96131.30
2023-03-22T03:35:23.030Z,96130.23
2023-03-22T03:37:59.148Z,96129.91
2023-03-22T03:40:33.374Z,96130.29
2023-03-22T03:43:05.094Z,96130.27
2023-03-22T03:45:36.100Z,96129.00
2023-03-22T03:48:11.493Z,96128.67
2023-03-22T03:50:40.095Z,96130.27
2023-03-22T03:53:08.597Z,96131.10
2023-03-22T03:55:37.700Z,96130.95
2023-03-22T03:58:05.964Z,96131.80
2023-03-22T04:00:34.933Z,96129.30
2023-03-22T04:03:14.617Z,96131.97
2023-03-22T04:05:55.975Z,96132.01
2023-03-22T04:08:24.187Z,96132.56
2023-03-22T04:10:54.277Z,96131.77
2023-03-22T04:13:24.619Z,96132.14
2023-03-22T04:15:57.647Z,96130.92
2023-03-22T04:18:29.904Z,96127.20
2023-03-22T04:20:59.361Z,96131.07
2023-03-22T04:23:28.695Z,96132.10
2023-03-22T04:25:59.564Z,96141.29
2023-03-22T04:28:35.250Z,96143.30
2023-03-22T04:31:05.681Z,96144.90
2023-03-22T04:34:18.602Z,96147.23
2023-03-22T04:37:43.515Z,96150.60
2023-03-22T04:48:27.610Z,96156.80
2023-03-22T04:52:10.463Z,96163.69
2023-03-22T04:56:03.722Z,96163.83
2023-03-22T04:59:54.591Z,96168.26
2023-03-22T05:03:45.410Z,96171.21
2023-03-22T05:07:33.563Z,96170.03
2023-03-22T05:14:43.682Z,96174.94
2023-03-22T05:18:17.518Z,96180.36
2023-03-22T05:21:44.945Z,96182.42
2023-03-22T05:25:21.606Z,96183.55
2023-03-22T05:32:37.272Z,96189.35
2023-03-22T05:36:08.580Z,96194.51
2023-03-22T05:39:57.500Z,96194.17
2023-03-22T05:43:29.619Z,96197.99
2023-03-22T05:47:12.550Z,96200.68
2023-03-22T05:50:50.680Z,96205.23
2023-03-22T05:54:27.761Z,96209.14
2023-03-22T05:58:08.629Z,96211.73
2023-03-22T06:01:38.603Z,96215.14
2023-03-22T06:05:23.555Z,96215.36
2023-03-22T06:09:17.541Z,96219.05
2023-03-22T06:13:05.130Z,96223.11
2023-03-22T06:16:52.637Z,96225.38
2023-03-22T06:20:25.632Z,96227.94
2023-03-22T06:24:04.633Z,96230.42
2023-03-22T06:28:06.394Z,96226.53
2023-03-22T06:31:39.629Z,96231.78
2023-03-22T06:35:16.661Z,96235.57
2023-03-22T06:39:03.396Z,96240.48
2023-03-22T06:42:49.503Z,96243.14
2023-03-22T06:46:21.676Z,96243.17
2023-03-22T06:49:58.588Z,96246.80
2023-03-22T06:53:48.596Z,96248.48
2023-03-22T06:56:50.037Z,96251.16
2023-03-22T06:59:19.617Z,96252.77
2023-03-22T07:01:57.024Z,96251.84
2023-03-22T07:04:25.889Z,96254.95
2023-03-22T07:06:57.421Z,96260.93
2023-03-22T07:09:27.441Z,96260.02
2023-03-22T07:12:06.999Z,96259.85
2023-03-22T07:14:43.070Z,96262.17
2023-03-22T07:17:53.792Z,96263.33
2023-03-22T07:20:24.406Z,96265.38
2023-03-22T07:23:02.828Z,96264.48
2023-03-22T07:25:43.515Z,96268.01
2023-03-22T07:28:23.856Z,96269.43
2023-03-22T07:31:38.974Z,96271.79
2023-03-22T07:38:06.260Z,96269.36
2023-03-22T07:40:39.217Z,96269.27
2023-03-22T07:43:13.180Z,96268.46
2023-03-22T07:46:16.746Z,96268.42
2023-03-22T07:49:10.883Z,96268.90
2023-03-22T07:52:01.769Z,96267.80
2023-03-22T07:54:37.260Z,96270.84
2023-03-22T07:57:08.708Z,96271.38
2023-03-22T07:59:43.550Z,96270.54
2023-03-22T08:02:14.099Z,96267.30
2023-03-22T08:10:04.922Z,96269.34
2023-03-22T08:16:19.970Z,96273.45
2023-03-22T08:23:52.938Z,96278.95
2023-03-22T08:27:26.816Z,96277.65
2023-03-22T08:30:54.400Z,96280.55
2023-03-22T08:34:11.053Z,96283.29
2023-03-22T08:36:45.858Z,96282.66
2023-03-22T08:44:31.439Z,96282.99
2023-03-22T08:47:25.560Z,96282.05
2023-03-22T08:50:49.855Z,96281.45
2023-03-22T08:54:36.774Z,96280.31
2023-03-22T09:02:04.616Z,96280.36
2023-03-22T09:05:05.235Z,96279.41
2023-03-22T09:08:00.614Z,96274.37
2023-03-22T09:17:14.032Z,96273.68
2023-03-22T09:23:39.408Z,96271.70
2023-03-22T09:23:40.374Z,96273.14
2023-03-22T09:26:32.614Z,96269.92
2023-03-22T09:29:36.500Z,96269.13
2023-03-22T10:10:11.869Z,96255.77
2023-03-22T10:13:47.768Z,96255.35
2023-03-22T10:16:43.175Z,96250.17
2023-03-22T10:20:05.663Z,96249.48
2023-03-22T10:26:09.805Z,96261.61
2023-03-22T10:30:09.551Z,96236.51
2023-03-22T10:33:23.079Z,96244.29
2023-03-22T10:36:16.222Z,96231.09
2023-03-22T10:39:15.173Z,96228.88
2023-03-22T10:41:50.110Z,96229.73
2023-03-22T10:44:20.030Z,96228.56
2023-03-22T10:47:09.267Z,96232.05
2023-03-22T10:49:43.900Z,96229.14
2023-03-22T10:52:31.436Z,96225.39
2023-03-22T10:55:03.769Z,96224.84
2023-03-22T10:57:32.575Z,96224.73
2023-03-22T11:00:12.123Z,96218.88
2023-03-22T11:03:10.878Z,96218.75
2023-03-22T11:05:41.483Z,96212.78
2023-03-22T11:08:15.560Z,96210.71
2023-03-22T11:13:58.263Z,96204.56
2023-03-22T11:16:31.649Z,96204.30
2023-03-22T11:19:22.839Z,96201.27
2023-03-22T11:21:55.656Z,96200.30
2023-03-22T11:24:27.741Z,96198.08
2023-03-22T11:27:31.404Z,96198.16
2023-03-22T11:30:15.218Z,96195.36
2023-03-22T11:33:27.974Z,96194.59
2023-03-22T11:36:00.353Z,96194.85
2023-03-22T11:38:36.855Z,96194.39
2023-03-22T11:41:22.513Z,96189.60
2023-03-22T11:44:01.883Z,96187.52
2023-03-22T11:46:31.010Z,96183.24
2023-03-22T11:49:06.139Z,96180.82
2023-03-22T11:51:38.055Z,96180.33
2023-03-22T11:54:26.519Z,96176.28
2023-03-22T11:57:02.044Z,96173.39
2023-03-22T11:59:40.714Z,96173.38
2023-03-22T12:02:35.892Z,96172.98
2023-03-22T12:05:13.112Z,96173.52
2023-03-22T12:07:52.577Z,96170.59
2023-03-22T12:10:28.697Z,96173.30
2023-03-22T12:12:59.653Z,96168.31
2023-03-22T12:15:36.708Z,96168.19
2023-03-22T12:18:12.484Z,96168.63
2023-03-22T12:20:54.701Z,96167.54
2023-03-22T12:23:28.076Z,96167.73
2023-03-22T12:26:03.138Z,96168.34
2023-03-22T12:28:53.451Z,96166.55
2023-03-22T12:31:26.938Z,96164.17
2023-03-22T12:33:58.100Z,96164.69
2023-03-22T12:36:39.731Z,96161.30
2023-03-22T12:39:13.009Z,96159.02
2023-03-22T12:41:47.265Z,96161.23
2023-03-22T12:44:27.596Z,96160.06
2023-03-22T12:47:01.163Z,96159.09
2023-03-22T12:49:41.201Z,96158.73
2023-03-22T12:52:23.218Z,96157.23
2023-03-22T12:54:53.474Z,96156.95
2023-03-22T12:57:21.733Z,96152.90
2023-03-22T12:59:53.278Z,96152.21
2023-03-22T13:02:36.756Z,96149.44
2023-03-22T13:05:11.803Z,96147.14
2023-03-22T13:07:54.049Z,96146.70
2023-03-22T13:10:42.007Z,96147.89
2023-03-22T13:13:19.332Z,96149.88
2023-03-22T13:16:27.458Z,96148.84
2023-03-22T13:19:00.566Z,96145.41
2023-03-22T13:21:32.025Z,96143.35
2023-03-22T13:24:20.808Z,96143.23
2023-03-22T13:26:53.086Z,96141.38
2023-03-22T13:29:25.265Z,96137.55
2023-03-22T13:33:01.595Z,96140.48
2023-03-22T13:36:50.239Z,96142.46
2023-03-22T13:40:29.872Z,96140.70
2023-03-22T13:55:07.585Z,96135.82
2023-03-22T14:05:13.633Z,96135.45
2023-03-22T14:08:52.210Z,96141.15
2023-03-22T14:20:39.494Z,96135.95
